sensor_id;sensor_type;location;lat;lon;timestamp;temperature;humidity
26378;DHT22;14078;50.974;6.786;2023-08-07T00:02:09;13.00;99.90
26378;DHT22;14078;50.974;6.786;2023-08-07T00:04:35;13.00;99.90
26378;DHT22;14078;50.974;6.786;2023-08-07T00:07:02;13.00;99.90
26378;DHT22;14078;50.974;6.786;2023-08-07T00:09:30;12.90;99.90
26378;DHT22;14078;50.974;6.786;2023-08-07T00:11:57;12.90;99.90
26378;DHT22;14078;50.974;6.786;2023-08-07T00:14:23;12.90;99.90
26378;DHT22;14078;50.974;6.786;2023-08-07T00:16:50;12.90;99.90
26378;DHT22;14078;50.974;6.786;2023-08-07T00:19:16;12.90;99.90
26378;DHT22;14078;50.974;6.786;2023-08-07T00:21:43;12.90;99.90
26378;DHT22;14078;50.974;6.786;2023-08-07T00:24:09;12.90;99.90
26378;DHT22;14078;50.974;6.786;2023-08-07T00:26:37;12.90;99.90
26378;DHT22;14078;50.974;6.786;2023-08-07T00:29:04;12.90;99.90
26378;DHT22;14078;50.974;6.786;2023-08-07T00:31:30;12.90;99.90
26378;DHT22;14078;50.974;6.786;2023-08-07T00:33:57;12.90;99.90
26378;DHT22;14078;50.974;6.786;2023-08-07T00:36:23;12.80;99.90
26378;DHT22;14078;50.974;6.786;2023-08-07T00:38:50;12.80;99.90
26378;DHT22;14078;50.974;6.786;2023-08-07T00:41:17;12.80;99.90
26378;DHT22;14078;50.974;6.786;2023-08-07T00:43:45;12.80;99.90
26378;DHT22;14078;50.974;6.786;2023-08-07T00:46:11;12.80;99.90
26378;DHT22;14078;50.974;6.786;2023-08-07T00:48:38;12.80;99.90
26378;DHT22;14078;50.974;6.786;2023-08-07T00:51:05;12.70;99.90
26378;DHT22;14078;50.974;6.786;2023-08-07T00:53:33;12.70;99.90
26378;DHT22;14078;50.974;6.786;2023-08-07T00:56:00;12.70;99.90
26378;DHT22;14078;50.974;6.786;2023-08-07T00:58:27;12.70;99.90
26378;DHT22;14078;50.974;6.786;2023-08-07T01:00:55;12.70;99.90
26378;DHT22;14078;50.974;6.786;2023-08-07T01:03:22;12.70;99.90
26378;DHT22;14078;50.974;6.786;2023-08-07T01:05:49;12.60;99.90
26378;DHT22;14078;50.974;6.786;2023-08-07T01:08:16;12.70;99.90
26378;DHT22;14078;50.974;6.786;2023-08-07T01:10:45;12.70;99.90
26378;DHT22;14078;50.974;6.786;2023-08-07T01:13:16;12.70;99.90
26378;DHT22;14078;50.974;6.786;2023-08-07T01:15:45;12.70;99.90
26378;DHT22;14078;50.974;6.786;2023-08-07T01:18:14;12.70;99.90
26378;DHT22;14078;50.974;6.786;2023-08-07T01:20:41;12.70;99.90
26378;DHT22;14078;50.974;6.786;2023-08-07T01:23:08;12.70;99.90
26378;DHT22;14078;50.974;6.786;2023-08-07T01:25:35;12.70;99.90
26378;DHT22;14078;50.974;6.786;2023-08-07T01:28:06;12.70;99.90
26378;DHT22;14078;50.974;6.786;2023-08-07T01:30:35;12.80;99.90
26378;DHT22;14078;50.974;6.786;2023-08-07T01:33:04;12.80;99.90
26378;DHT22;14078;50.974;6.786;2023-08-07T01:35:33;12.80;99.90
26378;DHT22;14078;50.974;6.786;2023-08-07T01:38:01;12.80;99.90
26378;DHT22;14078;50.974;6.786;2023-08-07T01:40:29;12.80;99.90
26378;DHT22;14078;50.974;6.786;2023-08-07T01:42:56;12.80;99.90
26378;DHT22;14078;50.974;6.786;2023-08-07T01:45:23;12.90;99.90
26378;DHT22;14078;50.974;6.786;2023-08-07T01:47:50;12.90;99.90
26378;DHT22;14078;50.974;6.786;2023-08-07T01:50:17;12.90;99.90
26378;DHT22;14078;50.974;6.786;2023-08-07T01:52:44;12.90;99.90
26378;DHT22;14078;50.974;6.786;2023-08-07T01:55:10;12.90;99.90
26378;DHT22;14078;50.974;6.786;2023-08-07T01:57:38;12.90;99.90
26378;DHT22;14078;50.974;6.786;2023-08-07T02:00:06;12.90;99.90
26378;DHT22;14078;50.974;6.786;2023-08-07T02:02:33;13.00;99.90
26378;DHT22;14078;50.974;6.786;2023-08-07T02:05:00;12.90;99.90
26378;DHT22;14078;50.974;6.786;2023-08-07T02:07:26;13.00;99.90
26378;DHT22;14078;50.974;6.786;2023-08-07T02:09:53;13.00;99.90
26378;DHT22;14078;50.974;6.786;2023-08-07T02:12:19;13.00;99.90
26378;DHT22;14078;50.974;6.786;2023-08-07T02:14:47;13.00;99.90
26378;DHT22;14078;50.974;6.786;2023-08-07T02:17:14;13.00;99.90
26378;DHT22;14078;50.974;6.786;2023-08-07T02:19:40;13.10;99.90
26378;DHT22;14078;50.974;6.786;2023-08-07T02:22:07;13.00;99.90
26378;DHT22;14078;50.974;6.786;2023-08-07T02:24:33;13.10;99.90
26378;DHT22;14078;50.974;6.786;2023-08-07T02:27:00;13.10;99.90
26378;DHT22;14078;50.974;6.786;2023-08-07T02:29:26;13.10;99.90
26378;DHT22;14078;50.974;6.786;2023-08-07T02:31:54;13.10;99.90
26378;DHT22;14078;50.974;6.786;2023-08-07T02:34:21;13.10;99.90
26378;DHT22;14078;50.974;6.786;2023-08-07T02:36:47;13.00;99.90
26378;DHT22;14078;50.974;6.786;2023-08-07T02:39:14;13.00;99.90
26378;DHT22;14078;50.974;6.786;2023-08-07T02:41:40;12.90;99.90
26378;DHT22;14078;50.974;6.786;2023-08-07T02:44:07;12.90;99.90
26378;DHT22;14078;50.974;6.786;2023-08-07T02:46:33;12.80;99.90
26378;DHT22;14078;50.974;6.786;2023-08-07T02:49:02;12.80;99.90
26378;DHT22;14078;50.974;6.786;2023-08-07T02:51:30;12.70;99.90
26378;DHT22;14078;50.974;6.786;2023-08-07T02:53:56;12.70;99.90
26378;DHT22;14078;50.974;6.786;2023-08-07T02:56:23;12.70;99.90
26378;DHT22;14078;50.974;6.786;2023-08-07T02:58:49;12.70;99.90
26378;DHT22;14078;50.974;6.786;2023-08-07T03:01:16;12.70;99.90
26378;DHT22;14078;50.974;6.786;2023-08-07T03:03:43;12.60;99.90
26378;DHT22;14078;50.974;6.786;2023-08-07T03:06:10;12.60;99.90
26378;DHT22;14078;50.974;6.786;2023-08-07T03:08:37;12.60;99.90
26378;DHT22;14078;50.974;6.786;2023-08-07T03:11:03;12.60;99.90
26378;DHT22;14078;50.974;6.786;2023-08-07T03:13:30;12.60;99.90
26378;DHT22;14078;50.974;6.786;2023-08-07T03:16:00;12.60;99.90
26378;DHT22;14078;50.974;6.786;2023-08-07T03:18:27;12.60;99.90
26378;DHT22;14078;50.974;6.786;2023-08-07T03:20:53;12.60;99.90
26378;DHT22;14078;50.974;6.786;2023-08-07T03:23:21;12.60;99.90
26378;DHT22;14078;50.974;6.786;2023-08-07T03:25:48;12.60;99.90
26378;DHT22;14078;50.974;6.786;2023-08-07T03:28:14;12.60;99.90
26378;DHT22;14078;50.974;6.786;2023-08-07T03:30:41;12.60;99.90
26378;DHT22;14078;50.974;6.786;2023-08-07T03:33:07;12.60;99.90
26378;DHT22;14078;50.974;6.786;2023-08-07T03:35:34;12.60;99.90
26378;DHT22;14078;50.974;6.786;2023-08-07T03:38:01;12.60;99.90
26378;DHT22;14078;50.974;6.786;2023-08-07T03:40:28;12.60;99.90
26378;DHT22;14078;50.974;6.786;2023-08-07T03:42:55;12.60;99.90
26378;DHT22;14078;50.974;6.786;2023-08-07T03:45:21;12.60;99.90
26378;DHT22;14078;50.974;6.786;2023-08-07T03:47:48;12.70;99.90
26378;DHT22;14078;50.974;6.786;2023-08-07T03:50:14;12.60;99.90
26378;DHT22;14078;50.974;6.786;2023-08-07T03:52:41;12.60;99.90
26378;DHT22;14078;50.974;6.786;2023-08-07T03:55:08;12.60;99.90
26378;DHT22;14078;50.974;6.786;2023-08-07T03:57:36;12.50;99.90
26378;DHT22;14078;50.974;6.786;2023-08-07T04:00:02;12.60;99.90
26378;DHT22;14078;50.974;6.786;2023-08-07T04:02:29;12.60;99.90
26378;DHT22;14078;50.974;6.786;2023-08-07T04:04:56;12.50;99.90
26378;DHT22;14078;50.974;6.786;2023-08-07T04:07:22;12.50;99.90
26378;DHT22;14078;50.974;6.786;2023-08-07T04:09:49;12.50;99.90
26378;DHT22;14078;50.974;6.786;2023-08-07T04:12:15;12.50;99.90
26378;DHT22;14078;50.974;6.786;2023-08-07T04:14:43;12.50;99.90
26378;DHT22;14078;50.974;6.786;2023-08-07T04:17:10;12.50;99.90
26378;DHT22;14078;50.974;6.786;2023-08-07T04:19:36;12.50;99.90
26378;DHT22;14078;50.974;6.786;2023-08-07T04:22:03;12.50;99.90
26378;DHT22;14078;50.974;6.786;2023-08-07T04:24:30;12.50;99.90
26378;DHT22;14078;50.974;6.786;2023-08-07T04:26:56;12.40;99.90
26378;DHT22;14078;50.974;6.786;2023-08-07T04:29:23;12.50;99.90
26378;DHT22;14078;50.974;6.786;2023-08-07T04:31:51;12.50;99.90
26378;DHT22;14078;50.974;6.786;2023-08-07T04:34:18;12.40;99.90
26378;DHT22;14078;50.974;6.786;2023-08-07T04:36:44;12.50;99.90
26378;DHT22;14078;50.974;6.786;2023-08-07T04:39:11;12.50;99.90
26378;DHT22;14078;50.974;6.786;2023-08-07T04:41:38;12.50;99.90
26378;DHT22;14078;50.974;6.786;2023-08-07T04:44:06;12.50;99.90
26378;DHT22;14078;50.974;6.786;2023-08-07T04:46:32;12.60;99.90
26378;DHT22;14078;50.974;6.786;2023-08-07T04:49:00;12.50;99.90
26378;DHT22;14078;50.974;6.786;2023-08-07T04:51:27;12.50;99.90
26378;DHT22;14078;50.974;6.786;2023-08-07T04:53:53;12.60;99.90
26378;DHT22;14078;50.974;6.786;2023-08-07T04:56:22;12.60;99.90
26378;DHT22;14078;50.974;6.786;2023-08-07T04:58:48;12.60;99.90
26378;DHT22;14078;50.974;6.786;2023-08-07T05:01:15;12.70;99.90
26378;DHT22;14078;50.974;6.786;2023-08-07T05:03:41;12.70;99.90
26378;DHT22;14078;50.974;6.786;2023-08-07T05:06:09;12.70;99.90
26378;DHT22;14078;50.974;6.786;2023-08-07T05:08:36;12.70;99.90
26378;DHT22;14078;50.974;6.786;2023-08-07T05:11:02;12.70;99.90
26378;DHT22;14078;50.974;6.786;2023-08-07T05:13:29;12.70;99.90
26378;DHT22;14078;50.974;6.786;2023-08-07T05:15:55;12.60;99.90
26378;DHT22;14078;50.974;6.786;2023-08-07T05:18:22;12.70;99.90
26378;DHT22;14078;50.974;6.786;2023-08-07T05:20:48;12.70;99.90
26378;DHT22;14078;50.974;6.786;2023-08-07T05:23:16;12.70;99.90
26378;DHT22;14078;50.974;6.786;2023-08-07T05:25:44;12.80;99.90
26378;DHT22;14078;50.974;6.786;2023-08-07T05:28:11;12.80;99.90
26378;DHT22;14078;50.974;6.786;2023-08-07T05:30:37;12.80;99.90
26378;DHT22;14078;50.974;6.786;2023-08-07T05:33:04;12.90;99.90
26378;DHT22;14078;50.974;6.786;2023-08-07T05:35:31;12.80;99.90
26378;DHT22;14078;50.974;6.786;2023-08-07T05:37:57;12.90;99.90
26378;DHT22;14078;50.974;6.786;2023-08-07T05:40:25;12.80;99.90
26378;DHT22;14078;50.974;6.786;2023-08-07T05:42:52;12.80;99.90
26378;DHT22;14078;50.974;6.786;2023-08-07T05:45:18;12.90;99.90
26378;DHT22;14078;50.974;6.786;2023-08-07T05:47:45;12.90;99.90
26378;DHT22;14078;50.974;6.786;2023-08-07T05:50:11;12.80;99.90
26378;DHT22;14078;50.974;6.786;2023-08-07T05:52:38;12.90;99.90
26378;DHT22;14078;50.974;6.786;2023-08-07T05:55:05;12.90;99.90
26378;DHT22;14078;50.974;6.786;2023-08-07T05:57:33;12.90;99.90
26378;DHT22;14078;50.974;6.786;2023-08-07T05:59:59;12.90;99.90
26378;DHT22;14078;50.974;6.786;2023-08-07T06:02:26;12.90;99.90
26378;DHT22;14078;50.974;6.786;2023-08-07T06:04:53;12.90;99.90
26378;DHT22;14078;50.974;6.786;2023-08-07T06:07:19;12.80;99.90
26378;DHT22;14078;50.974;6.786;2023-08-07T06:09:46;12.80;99.90
26378;DHT22;14078;50.974;6.786;2023-08-07T06:12:12;12.80;99.90
26378;DHT22;14078;50.974;6.786;2023-08-07T06:14:40;12.80;99.90
26378;DHT22;14078;50.974;6.786;2023-08-07T06:17:06;12.80;99.90
26378;DHT22;14078;50.974;6.786;2023-08-07T06:19:33;12.80;99.90
26378;DHT22;14078;50.974;6.786;2023-08-07T06:22:00;12.70;99.90
26378;DHT22;14078;50.974;6.786;2023-08-07T06:24:26;12.70;99.90
26378;DHT22;14078;50.974;6.786;2023-08-07T06:26:53;12.60;99.90
26378;DHT22;14078;50.974;6.786;2023-08-07T06:29:19;12.60;99.90
26378;DHT22;14078;50.974;6.786;2023-08-07T06:31:47;12.60;99.90
26378;DHT22;14078;50.974;6.786;2023-08-07T06:34:14;12.50;99.90
26378;DHT22;14078;50.974;6.786;2023-08-07T06:36:40;12.50;99.90
26378;DHT22;14078;50.974;6.786;2023-08-07T06:39:07;12.50;99.90
26378;DHT22;14078;50.974;6.786;2023-08-07T06:41:33;12.50;99.90
26378;DHT22;14078;50.974;6.786;2023-08-07T06:44:00;12.50;99.90
26378;DHT22;14078;50.974;6.786;2023-08-07T06:46:27;12.50;99.90
26378;DHT22;14078;50.974;6.786;2023-08-07T06:48:55;12.50;99.90
26378;DHT22;14078;50.974;6.786;2023-08-07T06:51:21;12.60;99.90
26378;DHT22;14078;50.974;6.786;2023-08-07T06:53:48;12.60;99.90
26378;DHT22;14078;50.974;6.786;2023-08-07T06:56:14;12.60;99.90
26378;DHT22;14078;50.974;6.786;2023-08-07T06:58:41;12.50;99.90
26378;DHT22;14078;50.974;6.786;2023-08-07T07:01:07;12.50;99.90
26378;DHT22;14078;50.974;6.786;2023-08-07T07:03:34;12.50;99.90
26378;DHT22;14078;50.974;6.786;2023-08-07T07:06:02;12.50;99.90
26378;DHT22;14078;50.974;6.786;2023-08-07T07:08:28;12.50;99.90
26378;DHT22;14078;50.974;6.786;2023-08-07T07:10:55;12.60;99.90
26378;DHT22;14078;50.974;6.786;2023-08-07T07:13:23;12.60;99.90
26378;DHT22;14078;50.974;6.786;2023-08-07T07:15:52;12.50;99.90
26378;DHT22;14078;50.974;6.786;2023-08-07T07:18:18;12.50;99.90
26378;DHT22;14078;50.974;6.786;2023-08-07T07:20:45;12.50;99.90
26378;DHT22;14078;50.974;6.786;2023-08-07T07:23:13;12.60;99.90
26378;DHT22;14078;50.974;6.786;2023-08-07T07:25:39;12.50;99.90
26378;DHT22;14078;50.974;6.786;2023-08-07T07:28:06;12.60;99.90
26378;DHT22;14078;50.974;6.786;2023-08-07T07:30:35;12.60;99.90
26378;DHT22;14078;50.974;6.786;2023-08-07T07:33:02;12.70;99.90
26378;DHT22;14078;50.974;6.786;2023-08-07T07:35:29;12.70;99.90
26378;DHT22;14078;50.974;6.786;2023-08-07T07:37:56;12.60;99.90
26378;DHT22;14078;50.974;6.786;2023-08-07T07:40:23;12.70;99.90
26378;DHT22;14078;50.974;6.786;2023-08-07T07:42:50;12.70;99.90
26378;DHT22;14078;50.974;6.786;2023-08-07T07:45:16;12.80;99.90
26378;DHT22;14078;50.974;6.786;2023-08-07T07:47:43;12.80;99.90
26378;DHT22;14078;50.974;6.786;2023-08-07T07:50:10;12.80;99.90
26378;DHT22;14078;50.974;6.786;2023-08-07T07:52:38;12.80;99.90
26378;DHT22;14078;50.974;6.786;2023-08-07T07:55:05;12.90;99.90
26378;DHT22;14078;50.974;6.786;2023-08-07T07:57:33;12.90;99.90
26378;DHT22;14078;50.974;6.786;2023-08-07T07:59:59;12.90;99.90
26378;DHT22;14078;50.974;6.786;2023-08-07T08:02:26;13.00;99.90
26378;DHT22;14078;50.974;6.786;2023-08-07T08:04:52;13.00;99.90
26378;DHT22;14078;50.974;6.786;2023-08-07T08:07:19;13.10;99.90
26378;DHT22;14078;50.974;6.786;2023-08-07T08:09:46;13.20;99.90
26378;DHT22;14078;50.974;6.786;2023-08-07T08:12:12;13.30;99.90
26378;DHT22;14078;50.974;6.786;2023-08-07T08:14:40;13.40;99.90
26378;DHT22;14078;50.974;6.786;2023-08-07T08:17:07;13.50;99.90
26378;DHT22;14078;50.974;6.786;2023-08-07T08:19:33;13.50;99.90
26378;DHT22;14078;50.974;6.786;2023-08-07T08:22:00;13.50;99.90
26378;DHT22;14078;50.974;6.786;2023-08-07T08:24:26;13.60;99.90
26378;DHT22;14078;50.974;6.786;2023-08-07T08:26:53;13.60;99.90
26378;DHT22;14078;50.974;6.786;2023-08-07T08:29:19;13.70;99.90
26378;DHT22;14078;50.974;6.786;2023-08-07T08:31:47;13.70;99.90
26378;DHT22;14078;50.974;6.786;2023-08-07T08:34:14;13.70;99.90
26378;DHT22;14078;50.974;6.786;2023-08-07T08:36:40;13.60;99.90
26378;DHT22;14078;50.974;6.786;2023-08-07T08:39:07;13.70;99.90
26378;DHT22;14078;50.974;6.786;2023-08-07T08:41:34;13.70;99.90
26378;DHT22;14078;50.974;6.786;2023-08-07T08:44:00;13.70;99.90
26378;DHT22;14078;50.974;6.786;2023-08-07T08:46:27;13.70;99.90
26378;DHT22;14078;50.974;6.786;2023-08-07T08:48:56;13.80;99.90
26378;DHT22;14078;50.974;6.786;2023-08-07T08:51:23;13.90;99.90
26378;DHT22;14078;50.974;6.786;2023-08-07T08:53:50;14.10;99.90
26378;DHT22;14078;50.974;6.786;2023-08-07T08:56:17;14.10;99.90
26378;DHT22;14078;50.974;6.786;2023-08-07T08:58:44;14.20;99.90
26378;DHT22;14078;50.974;6.786;2023-08-07T09:01:10;14.30;99.90
26378;DHT22;14078;50.974;6.786;2023-08-07T09:03:38;14.50;99.90
26378;DHT22;14078;50.974;6.786;2023-08-07T09:06:06;14.60;99.90
26378;DHT22;14078;50.974;6.786;2023-08-07T09:08:33;14.70;99.90
26378;DHT22;14078;50.974;6.786;2023-08-07T09:11:00;14.90;99.90
26378;DHT22;14078;50.974;6.786;2023-08-07T09:13:27;15.00;99.90
26378;DHT22;14078;50.974;6.786;2023-08-07T09:15:54;15.00;99.90
26378;DHT22;14078;50.974;6.786;2023-08-07T09:18:21;14.90;99.90
26378;DHT22;14078;50.974;6.786;2023-08-07T09:20:48;14.90;99.90
26378;DHT22;14078;50.974;6.786;2023-08-07T09:23:16;15.00;99.90
26378;DHT22;14078;50.974;6.786;2023-08-07T09:25:43;15.10;99.90
26378;DHT22;14078;50.974;6.786;2023-08-07T09:28:09;15.20;99.90
26378;DHT22;14078;50.974;6.786;2023-08-07T09:30:36;15.20;99.90
26378;DHT22;14078;50.974;6.786;2023-08-07T09:33:03;15.30;99.90
26378;DHT22;14078;50.974;6.786;2023-08-07T09:35:30;15.30;99.90
26378;DHT22;14078;50.974;6.786;2023-08-07T09:37:57;15.40;99.90
26378;DHT22;14078;50.974;6.786;2023-08-07T09:40:25;15.50;99.90
26378;DHT22;14078;50.974;6.786;2023-08-07T09:42:52;15.60;99.90
26378;DHT22;14078;50.974;6.786;2023-08-07T09:45:19;15.60;99.90
26378;DHT22;14078;50.974;6.786;2023-08-07T09:47:46;15.70;99.90
26378;DHT22;14078;50.974;6.786;2023-08-07T09:50:15;15.70;99.90
26378;DHT22;14078;50.974;6.786;2023-08-07T09:52:41;15.80;99.90
26378;DHT22;14078;50.974;6.786;2023-08-07T09:55:08;15.70;99.90
26378;DHT22;14078;50.974;6.786;2023-08-07T09:57:36;15.80;99.90
26378;DHT22;14078;50.974;6.786;2023-08-07T10:00:02;15.80;99.90
26378;DHT22;14078;50.974;6.786;2023-08-07T10:02:36;15.70;99.90
26378;DHT22;14078;50.974;6.786;2023-08-07T10:05:03;15.80;99.90
26378;DHT22;14078;50.974;6.786;2023-08-07T10:07:30;16.00;99.90
26378;DHT22;14078;50.974;6.786;2023-08-07T10:09:57;16.10;99.90
26378;DHT22;14078;50.974;6.786;2023-08-07T10:12:24;16.10;99.90
26378;DHT22;14078;50.974;6.786;2023-08-07T10:14:53;16.10;99.90
26378;DHT22;14078;50.974;6.786;2023-08-07T10:17:20;16.20;99.90
26378;DHT22;14078;50.974;6.786;2023-08-07T10:19:47;16.30;99.90
26378;DHT22;14078;50.974;6.786;2023-08-07T10:22:14;16.40;99.90
26378;DHT22;14078;50.974;6.786;2023-08-07T10:24:42;16.40;99.90
26378;DHT22;14078;50.974;6.786;2023-08-07T10:27:09;16.40;99.90
26378;DHT22;14078;50.974;6.786;2023-08-07T10:29:36;16.40;99.90
26378;DHT22;14078;50.974;6.786;2023-08-07T10:32:05;16.40;99.90
26378;DHT22;14078;50.974;6.786;2023-08-07T10:34:33;16.60;99.90
26378;DHT22;14078;50.974;6.786;2023-08-07T10:36:59;16.90;86.00
26378;DHT22;14078;50.974;6.786;2023-08-07T10:39:26;17.00;68.10
26378;DHT22;14078;50.974;6.786;2023-08-07T10:41:53;17.20;59.30
26378;DHT22;14078;50.974;6.786;2023-08-07T10:44:20;17.40;59.80
26378;DHT22;14078;50.974;6.786;2023-08-07T10:46:47;17.60;37.10
26378;DHT22;14078;50.974;6.786;2023-08-07T10:52:18;17.80;99.90
26378;DHT22;14078;50.974;6.786;2023-08-07T10:54:48;17.60;99.90
26378;DHT22;14078;50.974;6.786;2023-08-07T10:57:15;17.40;99.90
26378;DHT22;14078;50.974;6.786;2023-08-07T10:59:48;17.40;1.00
26378;DHT22;14078;50.974;6.786;2023-08-07T11:02:21;17.40;83.00
26378;DHT22;14078;50.974;6.786;2023-08-07T11:04:48;17.50;1.00
26378;DHT22;14078;50.974;6.786;2023-08-07T11:07:23;17.50;99.90
26378;DHT22;14078;50.974;6.786;2023-08-07T11:09:49;17.70;99.90
26378;DHT22;14078;50.974;6.786;2023-08-07T11:12:16;17.80;1.00
26378;DHT22;14078;50.974;6.786;2023-08-07T11:14:42;18.00;99.90
26378;DHT22;14078;50.974;6.786;2023-08-07T11:17:09;17.90;99.90
26378;DHT22;14078;50.974;6.786;2023-08-07T11:19:35;17.90;1.00
26378;DHT22;14078;50.974;6.786;2023-08-07T11:22:02;18.00;1.00
26378;DHT22;14078;50.974;6.786;2023-08-07T11:24:30;18.20;1.00
26378;DHT22;14078;50.974;6.786;2023-08-07T11:26:57;18.30;99.90
26378;DHT22;14078;50.974;6.786;2023-08-07T11:29:24;18.30;99.90
26378;DHT22;14078;50.974;6.786;2023-08-07T11:31:50;18.40;99.90
26378;DHT22;14078;50.974;6.786;2023-08-07T11:34:17;18.40;99.90
26378;DHT22;14078;50.974;6.786;2023-08-07T11:36:44;18.30;99.90
26378;DHT22;14078;50.974;6.786;2023-08-07T11:39:11;18.10;1.00
26378;DHT22;14078;50.974;6.786;2023-08-07T11:41:39;18.20;1.00
26378;DHT22;14078;50.974;6.786;2023-08-07T11:44:07;18.30;1.00
26378;DHT22;14078;50.974;6.786;2023-08-07T11:46:34;18.40;1.00
26378;DHT22;14078;50.974;6.786;2023-08-07T11:49:00;18.30;99.90
26378;DHT22;14078;50.974;6.786;2023-08-07T11:51:29;18.10;99.90
26378;DHT22;14078;50.974;6.786;2023-08-07T11:53:55;18.10;1.00
26378;DHT22;14078;50.974;6.786;2023-08-07T11:56:24;18.10;1.00
26378;DHT22;14078;50.974;6.786;2023-08-07T11:58:52;18.10;99.90
26378;DHT22;14078;50.974;6.786;2023-08-07T12:01:19;18.30;1.00
26378;DHT22;14078;50.974;6.786;2023-08-07T12:03:50;18.30;1.00
26378;DHT22;14078;50.974;6.786;2023-08-07T12:06:16;18.30;99.90
26378;DHT22;14078;50.974;6.786;2023-08-07T12:08:43;18.30;99.90
26378;DHT22;14078;50.974;6.786;2023-08-07T12:11:10;18.50;99.90
26378;DHT22;14078;50.974;6.786;2023-08-07T12:13:37;18.30;99.90
26378;DHT22;14078;50.974;6.786;2023-08-07T12:16:05;18.10;99.90
26378;DHT22;14078;50.974;6.786;2023-08-07T12:18:32;18.10;99.90
26378;DHT22;14078;50.974;6.786;2023-08-07T12:20:59;18.20;1.00
26378;DHT22;14078;50.974;6.786;2023-08-07T12:23:26;18.30;48.00
26378;DHT22;14078;50.974;6.786;2023-08-07T12:25:53;18.10;99.90
26378;DHT22;14078;50.974;6.786;2023-08-07T12:28:20;18.20;99.90
26378;DHT22;14078;50.974;6.786;2023-08-07T12:30:47;18.20;99.90
26378;DHT22;14078;50.974;6.786;2023-08-07T12:33:15;18.30;99.90
26378;DHT22;14078;50.974;6.786;2023-08-07T12:35:42;18.40;99.90
26378;DHT22;14078;50.974;6.786;2023-08-07T12:38:08;18.30;99.90
26378;DHT22;14078;50.974;6.786;2023-08-07T12:40:35;18.10;99.90
26378;DHT22;14078;50.974;6.786;2023-08-07T12:43:02;18.20;7.20
26378;DHT22;14078;50.974;6.786;2023-08-07T12:45:29;18.40;99.90
26378;DHT22;14078;50.974;6.786;2023-08-07T12:47:55;18.70;99.90
26378;DHT22;14078;50.974;6.786;2023-08-07T12:50:23;18.80;99.90
26378;DHT22;14078;50.974;6.786;2023-08-07T12:52:50;19.00;99.90
26378;DHT22;14078;50.974;6.786;2023-08-07T12:55:17;19.20;46.20
26378;DHT22;14078;50.974;6.786;2023-08-07T12:57:43;19.30;12.20
26378;DHT22;14078;50.974;6.786;2023-08-07T13:00:10;19.40;34.80
26378;DHT22;14078;50.974;6.786;2023-08-07T13:02:40;19.20;5.20
26378;DHT22;14078;50.974;6.786;2023-08-07T13:05:06;18.90;15.20
26378;DHT22;14078;50.974;6.786;2023-08-07T13:07:35;18.80;99.90
26378;DHT22;14078;50.974;6.786;2023-08-07T13:10:02;19.00;27.00
26378;DHT22;14078;50.974;6.786;2023-08-07T13:12:28;19.00;1.00
26378;DHT22;14078;50.974;6.786;2023-08-07T13:14:55;19.00;1.00
26378;DHT22;14078;50.974;6.786;2023-08-07T13:17:21;18.80;1.00
26378;DHT22;14078;50.974;6.786;2023-08-07T13:19:48;18.60;99.90
26378;DHT22;14078;50.974;6.786;2023-08-07T13:22:14;18.80;99.90
26378;DHT22;14078;50.974;6.786;2023-08-07T13:24:42;18.90;11.00
26378;DHT22;14078;50.974;6.786;2023-08-07T13:27:09;18.90;99.90
26378;DHT22;14078;50.974;6.786;2023-08-07T13:29:35;19.00;50.90
26378;DHT22;14078;50.974;6.786;2023-08-07T13:32:02;18.90;99.90
26378;DHT22;14078;50.974;6.786;2023-08-07T13:34:34;19.00;99.90
26378;DHT22;14078;50.974;6.786;2023-08-07T13:37:01;18.80;99.90
26378;DHT22;14078;50.974;6.786;2023-08-07T13:39:27;18.70;99.90
26378;DHT22;14078;50.974;6.786;2023-08-07T13:41:55;18.70;1.00
26378;DHT22;14078;50.974;6.786;2023-08-07T13:44:21;18.70;1.00
26378;DHT22;14078;50.974;6.786;2023-08-07T13:46:48;18.80;99.90
26378;DHT22;14078;50.974;6.786;2023-08-07T13:49:15;18.70;99.90
26378;DHT22;14078;50.974;6.786;2023-08-07T13:51:41;19.00;1.00
26378;DHT22;14078;50.974;6.786;2023-08-07T13:54:08;19.20;99.90
26378;DHT22;14078;50.974;6.786;2023-08-07T13:56:34;19.40;99.90
26378;DHT22;14078;50.974;6.786;2023-08-07T13:59:02;19.50;99.90
26378;DHT22;14078;50.974;6.786;2023-08-07T14:01:29;19.40;1.00
26378;DHT22;14078;50.974;6.786;2023-08-07T14:03:56;19.60;40.30
26378;DHT22;14078;50.974;6.786;2023-08-07T14:06:22;19.50;1.00
26378;DHT22;14078;50.974;6.786;2023-08-07T14:08:49;19.30;99.90
26378;DHT22;14078;50.974;6.786;2023-08-07T14:11:15;19.30;99.90
26378;DHT22;14078;50.974;6.786;2023-08-07T14:13:42;19.20;99.90
26378;DHT22;14078;50.974;6.786;2023-08-07T14:16:10;19.20;99.90
26378;DHT22;14078;50.974;6.786;2023-08-07T14:18:37;19.10;99.90
26378;DHT22;14078;50.974;6.786;2023-08-07T14:21:03;18.90;1.00
26378;DHT22;14078;50.974;6.786;2023-08-07T14:23:30;18.50;99.90
26378;DHT22;14078;50.974;6.786;2023-08-07T14:25:56;17.90;2.30
26378;DHT22;14078;50.974;6.786;2023-08-07T14:28:23;17.60;58.70
26378;DHT22;14078;50.974;6.786;2023-08-07T14:30:50;17.70;82.50
26378;DHT22;14078;50.974;6.786;2023-08-07T14:33:18;17.80;45.50
26378;DHT22;14078;50.974;6.786;2023-08-07T14:35:45;18.10;1.90
26378;DHT22;14078;50.974;6.786;2023-08-07T14:38:11;18.40;1.00
26378;DHT22;14078;50.974;6.786;2023-08-07T14:40:38;18.80;1.00
26378;DHT22;14078;50.974;6.786;2023-08-07T14:43:06;19.00;1.00
26378;DHT22;14078;50.974;6.786;2023-08-07T14:45:33;19.00;1.00
26378;DHT22;14078;50.974;6.786;2023-08-07T14:47:59;19.00;99.90
26378;DHT22;14078;50.974;6.786;2023-08-07T14:50:27;19.00;99.90
26378;DHT22;14078;50.974;6.786;2023-08-07T14:52:54;19.40;1.00
26378;DHT22;14078;50.974;6.786;2023-08-07T14:55:20;20.10;11.00
26378;DHT22;14078;50.974;6.786;2023-08-07T14:57:47;20.60;83.70
26378;DHT22;14078;50.974;6.786;2023-08-07T15:00:14;21.20;83.20
26378;DHT22;14078;50.974;6.786;2023-08-07T15:02:41;21.40;1.00
26378;DHT22;14078;50.974;6.786;2023-08-07T15:05:08;21.20;1.00
26378;DHT22;14078;50.974;6.786;2023-08-07T15:07:36;21.30;1.00
26378;DHT22;14078;50.974;6.786;2023-08-07T15:10:02;21.20;48.60
26378;DHT22;14078;50.974;6.786;2023-08-07T15:12:29;21.30;1.00
26378;DHT22;14078;50.974;6.786;2023-08-07T15:14:55;21.20;1.00
26378;DHT22;14078;50.974;6.786;2023-08-07T15:17:22;20.60;10.20
26378;DHT22;14078;50.974;6.786;2023-08-07T15:19:49;20.50;99.90
26378;DHT22;14078;50.974;6.786;2023-08-07T15:22:15;20.00;99.90
26378;DHT22;14078;50.974;6.786;2023-08-07T15:24:43;20.00;99.90
26378;DHT22;14078;50.974;6.786;2023-08-07T15:27:10;19.80;99.90
26378;DHT22;14078;50.974;6.786;2023-08-07T15:29:36;19.70;99.90
26378;DHT22;14078;50.974;6.786;2023-08-07T15:32:06;19.70;99.90
26378;DHT22;14078;50.974;6.786;2023-08-07T15:34:33;19.50;99.90